createdAt,value
2023-08-15T00:01:43.721Z,16.69
2023-08-15T00:04:10.375Z,16.63
2023-08-15T00:06:36.974Z,16.69
2023-08-15T00:09:03.764Z,16.75
2023-08-15T00:11:30.443Z,16.81
2023-08-15T00:13:57.857Z,16.75
2023-08-15T00:16:25.288Z,16.63
2023-08-15T00:18:52.112Z,16.63
2023-08-15T00:21:18.772Z,16.63
2023-08-15T00:23:45.495Z,16.56
2023-08-15T00:26:12.158Z,16.63
2023-08-15T00:28:39.499Z,16.69
2023-08-15T00:31:06.189Z,16.69
2023-08-15T00:33:32.896Z,16.63
2023-08-15T00:35:59.530Z,16.69
2023-08-15T00:38:26.100Z,16.69
2023-08-15T00:40:53.376Z,16.63
2023-08-15T00:43:20.321Z,16.63
2023-08-15T00:45:47.770Z,16.69
2023-08-15T00:48:14.930Z,16.69
2023-08-15T00:50:44.373Z,16.75
2023-08-15T00:53:12.373Z,16.63
2023-08-15T00:55:40.054Z,16.63
2023-08-15T00:58:07.280Z,16.44
2023-08-15T01:00:34.128Z,16.44
2023-08-15T01:03:00.957Z,16.44
2023-08-15T01:05:31.090Z,16.50
2023-08-15T01:07:57.933Z,16.50
2023-08-15T01:10:24.779Z,16.44
2023-08-15T01:13:21.225Z,16.44
2023-08-15T01:15:52.559Z,16.50
2023-08-15T01:18:35.747Z,16.63
2023-08-15T01:21:04.396Z,16.69
2023-08-15T01:23:47.966Z,16.81
2023-08-15T01:26:14.579Z,16.94
2023-08-15T01:28:41.250Z,16.94
2023-08-15T01:31:08.198Z,16.81
2023-08-15T01:33:42.053Z,16.88
2023-08-15T01:36:25.997Z,16.94
2023-08-15T01:39:14.507Z,17.06
2023-08-15T01:41:42.662Z,17.00
2023-08-15T01:44:12.730Z,17.06
2023-08-15T01:46:39.923Z,17.06
2023-08-15T01:49:06.672Z,17.06
2023-08-15T01:51:33.286Z,16.94
2023-08-15T01:53:59.925Z,17.06
2023-08-15T01:56:26.568Z,17.00
2023-08-15T01:58:53.214Z,16.81
2023-08-15T02:01:19.929Z,16.88
2023-08-15T02:03:46.672Z,16.88
2023-08-15T02:06:13.492Z,16.81
2023-08-15T02:08:40.169Z,16.81
2023-08-15T02:11:06.831Z,16.81
2023-08-15T02:13:34.625Z,16.69
2023-08-15T02:16:01.859Z,16.81
2023-08-15T02:18:30.435Z,16.81
2023-08-15T02:20:57.159Z,16.69
2023-08-15T02:23:23.826Z,16.81
2023-08-15T02:25:50.938Z,16.81
2023-08-15T02:28:18.189Z,16.69
2023-08-15T02:30:44.931Z,16.69
2023-08-15T02:33:11.767Z,16.63
2023-08-15T02:35:43.161Z,16.69
2023-08-15T02:38:09.879Z,16.63
2023-08-15T02:40:37.229Z,16.94
2023-08-15T02:43:03.988Z,16.94
2023-08-15T02:45:31.492Z,17.06
2023-08-15T02:47:58.130Z,16.75
2023-08-15T02:50:24.816Z,16.69
2023-08-15T02:52:51.408Z,16.69
2023-08-15T02:55:18.215Z,16.75
2023-08-15T02:57:44.912Z,16.81
2023-08-15T03:00:13.025Z,16.81
2023-08-15T03:02:41.288Z,16.94
2023-08-15T03:05:08.106Z,17.06
2023-08-15T03:07:34.691Z,17.13
2023-08-15T03:10:01.964Z,17.19
2023-08-15T03:12:30.154Z,17.19
2023-08-15T03:14:58.761Z,17.19
2023-08-15T03:17:25.413Z,17.00
2023-08-15T03:19:54.147Z,16.69
2023-08-15T03:22:20.829Z,16.50
2023-08-15T03:24:47.601Z,16.38
2023-08-15T03:27:14.179Z,16.38
2023-08-15T03:29:40.774Z,16.50
2023-08-15T03:32:07.430Z,16.50
2023-08-15T03:34:34.128Z,16.56
2023-08-15T03:37:00.752Z,16.63
2023-08-15T03:39:28.195Z,16.69
2023-08-15T03:41:54.812Z,16.44
2023-08-15T03:44:21.946Z,16.25
2023-08-15T03:46:48.721Z,16.25
2023-08-15T03:49:15.503Z,16.31
2023-08-15T03:51:46.995Z,16.31
2023-08-15T03:54:14.402Z,16.44
2023-08-15T03:56:41.175Z,16.44
2023-08-15T03:59:08.378Z,16.44
2023-08-15T04:01:35.418Z,16.31
2023-08-15T04:04:02.257Z,16.19
2023-08-15T04:06:28.932Z,16.25
2023-08-15T04:08:55.565Z,16.25
2023-08-15T04:11:22.210Z,16.25
2023-08-15T04:13:48.822Z,16.25
2023-08-15T04:16:16.302Z,16.00
2023-08-15T04:18:42.935Z,16.00
2023-08-15T04:21:12.393Z,15.88
2023-08-15T04:23:39.138Z,16.00
2023-08-15T04:26:06.546Z,16.06
2023-08-15T04:28:33.252Z,16.19
2023-08-15T04:30:59.873Z,16.06
2023-08-15T04:33:26.530Z,16.13
2023-08-15T04:35:53.744Z,16.06
2023-08-15T04:38:20.358Z,16.06
2023-08-15T04:40:46.997Z,16.13
2023-08-15T04:43:13.733Z,15.94
2023-08-15T04:45:45.363Z,15.81
2023-08-15T04:48:13.756Z,15.81
2023-08-15T04:50:40.900Z,16.00
2023-08-15T04:53:08.254Z,15.94
2023-08-15T04:55:35.429Z,15.81
2023-08-15T04:58:02.340Z,15.88
2023-08-15T05:00:29.963Z,15.81
2023-08-15T05:02:58.534Z,15.88
2023-08-15T05:05:25.534Z,15.88
2023-08-15T05:07:52.212Z,15.88
2023-08-15T05:10:18.931Z,15.81
2023-08-15T05:12:45.602Z,15.75
2023-08-15T05:15:12.368Z,16.00
2023-08-15T05:17:39.061Z,16.13
2023-08-15T05:20:06.320Z,16.38
2023-08-15T05:22:33.559Z,16.38
2023-08-15T05:25:00.858Z,16.50
2023-08-15T05:27:28.121Z,16.56
2023-08-15T05:29:54.803Z,16.63
2023-08-15T05:32:21.460Z,16.69
2023-08-15T05:34:48.096Z,16.69
2023-08-15T05:37:14.741Z,16.75
2023-08-15T05:39:41.354Z,16.88
2023-08-15T05:42:08.003Z,16.94
2023-08-15T05:44:34.695Z,17.00
2023-08-15T05:47:01.329Z,17.06
2023-08-15T05:49:27.974Z,17.13
2023-08-15T05:51:55.169Z,17.19
2023-08-15T05:54:22.655Z,17.19
2023-08-15T05:56:49.621Z,17.31
2023-08-15T05:59:16.251Z,17.38
2023-08-15T06:01:42.898Z,17.44
2023-08-15T06:04:09.690Z,17.50
2023-08-15T06:06:36.347Z,17.56
2023-08-15T06:09:03.603Z,17.69
2023-08-15T06:11:30.815Z,17.63
2023-08-15T06:13:57.406Z,17.69
2023-08-15T06:16:24.091Z,17.69
2023-08-15T06:18:50.736Z,17.75
2023-08-15T06:21:17.446Z,17.81
2023-08-15T06:23:44.100Z,17.94
2023-08-15T06:26:10.787Z,17.94
2023-08-15T06:28:37.522Z,18.06
2023-08-15T06:31:04.235Z,18.06
2023-08-15T06:33:30.942Z,18.13
2023-08-15T06:35:57.785Z,18.19
2023-08-15T06:38:24.450Z,18.25
2023-08-15T06:40:51.104Z,18.44
2023-08-15T06:43:17.767Z,18.63
2023-08-15T06:45:44.726Z,18.81
2023-08-15T06:48:11.383Z,18.88
2023-08-15T06:50:38.042Z,18.81
2023-08-15T06:53:04.832Z,18.88
2023-08-15T06:55:31.488Z,18.94
2023-08-15T06:57:58.181Z,18.94
2023-08-15T07:00:24.865Z,19.00
2023-08-15T07:02:51.638Z,19.00
2023-08-15T07:05:18.375Z,19.00
2023-08-15T07:07:45.003Z,19.00
2023-08-15T07:10:11.863Z,19.06
2023-08-15T07:12:38.719Z,19.06
2023-08-15T07:15:05.996Z,19.13
2023-08-15T07:17:32.868Z,19.19
2023-08-15T07:19:59.601Z,19.13
2023-08-15T07:22:26.268Z,19.13
2023-08-15T07:24:52.881Z,19.19
2023-08-15T07:27:19.539Z,19.25
2023-08-15T07:29:46.160Z,19.31
2023-08-15T07:32:13.781Z,19.31
2023-08-15T07:34:41.897Z,19.38
2023-08-15T07:37:08.670Z,19.44
2023-08-15T07:39:35.932Z,19.44
2023-08-15T07:42:02.674Z,19.44
2023-08-15T07:44:29.422Z,19.56
2023-08-15T07:46:56.003Z,19.56
2023-08-15T07:49:22.628Z,19.56
2023-08-15T07:51:49.439Z,19.44
2023-08-15T07:54:16.344Z,19.31
2023-08-15T07:56:43.119Z,19.25
2023-08-15T07:59:09.757Z,19.38
2023-08-15T08:01:36.512Z,19.56
2023-08-15T08:04:03.262Z,19.75
2023-08-15T08:09:00.100Z,20.19
2023-08-15T08:11:26.746Z,20.25
2023-08-15T08:13:53.416Z,20.31
2023-08-15T08:16:20.132Z,20.25
2023-08-15T08:18:46.757Z,20.13
2023-08-15T08:21:13.483Z,20.19
2023-08-15T08:23:40.075Z,20.38
2023-08-15T08:26:06.712Z,20.56
2023-08-15T08:28:33.415Z,20.75
2023-08-15T08:31:00.085Z,20.88
2023-08-15T08:33:27.512Z,20.81
2023-08-15T08:35:54.174Z,20.63
2023-08-15T08:38:21.041Z,20.63
2023-08-15T08:40:48.815Z,21.00
2023-08-15T08:43:17.103Z,21.25
2023-08-15T08:45:52.039Z,21.38
2023-08-15T08:48:20.190Z,21.44
2023-08-15T08:50:46.839Z,21.19
2023-08-15T08:53:13.541Z,21.06
2023-08-15T08:55:41.328Z,20.75
2023-08-15T08:58:11.783Z,20.50
2023-08-15T09:00:41.707Z,20.63
2023-08-15T09:03:10.355Z,20.75
2023-08-15T09:05:37.625Z,20.88
2023-08-15T09:08:05.393Z,20.75
2023-08-15T09:10:32.104Z,20.94
2023-08-15T09:13:00.705Z,21.19
2023-08-15T09:15:27.935Z,21.19
2023-08-15T09:18:02.750Z,21.31
2023-08-15T09:20:29.475Z,21.44
2023-08-15T09:23:00.574Z,21.56
2023-08-15T09:25:28.553Z,21.63
2023-08-15T09:27:55.829Z,21.69
2023-08-15T09:30:23.118Z,21.81
2023-08-15T09:32:50.431Z,22.06
2023-08-15T09:35:19.719Z,22.25
2023-08-15T09:37:49.427Z,22.56
2023-08-15T09:40:24.341Z,22.69
2023-08-15T09:42:52.589Z,22.56
2023-08-15T09:45:19.937Z,22.25
2023-08-15T09:47:46.974Z,22.25
2023-08-15T09:50:15.341Z,22.06
2023-08-15T09:52:50.824Z,22.00
2023-08-15T09:55:19.440Z,22.06
2023-08-15T09:57:47.487Z,22.44
2023-08-15T10:00:18.415Z,22.63
2023-08-15T10:03:02.121Z,22.50
2023-08-15T10:05:34.313Z,22.06
2023-08-15T10:08:01.202Z,22.06
2023-08-15T10:10:28.974Z,21.94
2023-08-15T10:12:56.267Z,21.88
2023-08-15T10:15:24.269Z,21.81
2023-08-15T10:17:52.143Z,21.69
2023-08-15T10:20:21.389Z,21.63
2023-08-15T10:22:59.445Z,21.69
2023-08-15T10:25:40.749Z,21.75
2023-08-15T10:28:12.284Z,21.69
2023-08-15T10:30:52.586Z,21.63
2023-08-15T10:33:22.883Z,21.69
2023-08-15T10:35:55.980Z,21.63
2023-08-15T10:38:22.699Z,21.63
2023-08-15T10:40:52.467Z,21.81
2023-08-15T10:43:19.174Z,21.88
2023-08-15T10:45:51.751Z,21.94
2023-08-15T10:48:47.117Z,21.88
2023-08-15T10:51:33.433Z,21.94
2023-08-15T10:54:02.464Z,22.06
2023-08-15T10:56:39.862Z,22.00
2023-08-15T10:59:10.010Z,21.81
2023-08-15T11:01:39.139Z,21.94
2023-08-15T11:04:09.718Z,21.94
2023-08-15T11:06:47.620Z,22.06
2023-08-15T11:09:15.548Z,22.19
2023-08-15T11:11:42.178Z,22.19
2023-08-15T11:14:17.818Z,22.19
2023-08-15T11:16:48.793Z,22.25
2023-08-15T11:19:21.756Z,22.19
2023-08-15T11:21:49.290Z,22.25
2023-08-15T11:24:16.442Z,22.19
2023-08-15T11:26:43.173Z,22.19
2023-08-15T11:29:14.095Z,22.06
2023-08-15T11:31:42.339Z,22.19
2023-08-15T11:34:12.359Z,22.50
2023-08-15T11:36:39.619Z,22.44
2023-08-15T11:39:06.301Z,22.56
2023-08-15T11:41:36.342Z,22.63
2023-08-15T11:44:04.801Z,22.63
2023-08-15T11:46:52.507Z,22.75
2023-08-15T11:49:22.669Z,22.69
2023-08-15T11:51:49.393Z,22.50
2023-08-15T11:54:16.183Z,22.56
2023-08-15T11:56:53.912Z,22.44
2023-08-15T11:59:20.944Z,22.38
2023-08-15T12:01:48.966Z,22.19
2023-08-15T12:04:17.432Z,22.25
2023-08-15T12:06:44.092Z,22.19
2023-08-15T12:09:13.117Z,22.19
2023-08-15T12:11:39.825Z,21.88
2023-08-15T12:14:06.514Z,21.94
2023-08-15T12:16:33.162Z,22.06
2023-08-15T12:18:59.782Z,22.00
2023-08-15T12:21:26.431Z,22.13
2023-08-15T12:23:53.161Z,22.25
2023-08-15T12:26:19.817Z,22.44
2023-08-15T12:28:46.459Z,22.69
2023-08-15T12:31:13.173Z,22.75
2023-08-15T12:33:46.679Z,22.88
2023-08-15T12:36:15.030Z,22.81
2023-08-15T12:38:41.755Z,22.44
2023-08-15T12:41:10.087Z,22.50
2023-08-15T12:43:37.423Z,22.44
2023-08-15T12:46:04.131Z,22.44
2023-08-15T12:48:30.780Z,22.38
2023-08-15T12:50:57.476Z,22.38
2023-08-15T12:53:24.442Z,22.25
2023-08-15T12:55:51.329Z,22.25
2023-08-15T12:58:18.025Z,22.13
2023-08-15T13:00:44.799Z,22.25
2023-08-15T13:03:11.445Z,22.56
2023-08-15T13:05:38.525Z,22.88
2023-08-15T13:08:05.335Z,22.94
2023-08-15T13:10:32.147Z,22.88
2023-08-15T13:12:58.769Z,22.63
2023-08-15T13:15:25.606Z,22.44
2023-08-15T13:17:52.350Z,22.50
2023-08-15T13:20:19.116Z,22.56
2023-08-15T13:22:45.766Z,22.56
2023-08-15T13:25:12.458Z,22.56
2023-08-15T13:27:39.080Z,22.44
2023-08-15T13:30:06.536Z,22.69
2023-08-15T13:32:35.202Z,23.06
2023-08-15T13:35:02.166Z,22.69
2023-08-15T13:37:28.831Z,23.06
2023-08-15T13:39:58.318Z,23.31
2023-08-15T13:42:36.325Z,23.06
2023-08-15T13:45:09.550Z,23.06
2023-08-15T13:47:39.781Z,23.44
2023-08-15T13:50:07.775Z,23.25
2023-08-15T13:52:35.036Z,23.06
2023-08-15T13:55:01.642Z,22.88
2023-08-15T13:57:28.362Z,22.69
2023-08-15T13:59:55.924Z,22.94
2023-08-15T14:02:22.634Z,22.88
2023-08-15T14:04:49.799Z,23.25
2023-08-15T14:07:16.545Z,23.31
2023-08-15T14:09:43.182Z,22.94
2023-08-15T14:12:09.786Z,23.00
2023-08-15T14:14:38.051Z,22.94
2023-08-15T14:17:07.504Z,22.94
2023-08-15T14:19:34.234Z,22.88
2023-08-15T14:22:00.878Z,22.94
2023-08-15T14:24:27.554Z,22.94
2023-08-15T14:26:54.191Z,22.88
2023-08-15T14:29:21.158Z,22.81
2023-08-15T14:31:47.828Z,23.00
2023-08-15T14:34:15.456Z,23.06
2023-08-15T14:36:42.129Z,23.06
2023-08-15T14:39:09.027Z,22.88
2023-08-15T14:41:35.740Z,23.00
2023-08-15T14:44:02.343Z,23.31
2023-08-15T14:46:29.013Z,23.31
2023-08-15T14:48:55.700Z,23.19
2023-08-15T14:51:22.387Z,23.31
2023-08-15T14:53:48.973Z,23.50
2023-08-15T14:56:17.411Z,23.63
2023-08-15T14:58:45.550Z,23.63
2023-08-15T15:01:13.220Z,23.69
2023-08-15T15:03:39.968Z,23.75
2023-08-15T15:06:06.713Z,23.44
2023-08-15T15:08:33.319Z,23.19
2023-08-15T15:11:00.893Z,23.19
2023-08-15T15:13:27.535Z,23.25
2023-08-15T15:15:54.924Z,23.25
2023-08-15T15:18:22.907Z,23.19
2023-08-15T15:20:49.730Z,23.06
2023-08-15T15:23:16.854Z,23.25
2023-08-15T15:25:48.263Z,23.19
2023-08-15T15:28:15.682Z,23.13
2023-08-15T15:30:42.396Z,23.19
2023-08-15T15:33:09.129Z,23.19
2023-08-15T15:35:35.830Z,23.06
2023-08-15T15:38:02.466Z,23.13
2023-08-15T15:40:29.331Z,22.94
2023-08-15T15:42:56.001Z,22.75
2023-08-15T15:45:22.663Z,22.63
2023-08-15T15:47:49.555Z,22.56
2023-08-15T15:50:21.140Z,22.63
2023-08-15T15:52:48.555Z,22.88
2023-08-15T15:55:20.075Z,22.88
2023-08-15T15:57:46.756Z,22.88
2023-08-15T16:00:15.699Z,22.81
2023-08-15T16:02:42.602Z,23.13
2023-08-15T16:05:11.328Z,22.81
2023-08-15T16:07:38.046Z,22.88
2023-08-15T16:10:06.762Z,22.88
2023-08-15T16:12:33.694Z,22.81
2023-08-15T16:15:01.660Z,22.56
2023-08-15T16:17:28.341Z,22.56
2023-08-15T16:19:55.399Z,22.50
2023-08-15T16:22:22.652Z,22.81
2023-08-15T16:24:49.572Z,22.81
2023-08-15T16:27:16.179Z,22.50
2023-08-15T16:29:42.788Z,22.44
2023-08-15T16:32:12.017Z,22.31
2023-08-15T16:34:40.061Z,22.38
2023-08-15T16:37:06.837Z,22.19
2023-08-15T16:39:33.497Z,22.25
2023-08-15T16:42:00.160Z,22.19
2023-08-15T16:44:26.841Z,22.31
2023-08-15T16:46:53.644Z,22.38
2023-08-15T16:49:21.073Z,22.38
2023-08-15T16:51:47.721Z,22.13
2023-08-15T16:54:14.415Z,22.13
2023-08-15T16:56:41.041Z,22.19
2023-08-15T16:59:07.682Z,22.13
2023-08-15T17:01:34.404Z,22.06
2023-08-15T17:04:01.145Z,22.00
2023-08-15T17:06:27.861Z,22.00
2023-08-15T17:08:55.307Z,21.94
2023-08-15T17:11:21.943Z,21.88
2023-08-15T17:13:48.584Z,21.81
2023-08-15T17:16:15.224Z,21.75
2023-08-15T17:18:41.850Z,21.69
2023-08-15T17:21:08.490Z,21.69
2023-08-15T17:23:35.108Z,21.56
2023-08-15T17:26:01.744Z,21.50
2023-08-15T17:28:28.394Z,21.38
2023-08-15T17:30:55.793Z,21.31
2023-08-15T17:33:22.568Z,21.31
2023-08-15T17:35:49.245Z,21.19
2023-08-15T17:38:15.866Z,21.13
2023-08-15T17:40:42.879Z,21.06
2023-08-15T17:43:09.686Z,21.00
2023-08-15T17:45:40.869Z,21.00
2023-08-15T17:48:07.863Z,20.94
2023-08-15T17:50:34.577Z,20.88
2023-08-15T17:53:01.564Z,20.81
2023-08-15T17:55:28.707Z,20.81
2023-08-15T17:57:55.355Z,20.75
2023-08-15T18:00:22.200Z,20.69
2023-08-15T18:02:48.969Z,20.63
2023-08-15T18:05:15.770Z,20.50
2023-08-15T18:07:42.448Z,20.25
2023-08-15T18:10:09.456Z,20.19
2023-08-15T18:12:36.115Z,20.25
2023-08-15T18:15:03.398Z,20.13
2023-08-15T18:17:30.063Z,20.13
2023-08-15T18:19:56.689Z,19.94
2023-08-15T18:22:23.785Z,19.88
2023-08-15T18:24:50.695Z,19.81
2023-08-15T18:27:19.869Z,19.81
2023-08-15T18:29:47.865Z,19.81
2023-08-15T18:32:14.489Z,19.63
2023-08-15T18:34:41.233Z,19.63
2023-08-15T18:37:07.923Z,19.56
2023-08-15T18:39:34.738Z,19.56
2023-08-15T18:42:01.395Z,19.38
2023-08-15T18:44:28.123Z,18.94
2023-08-15T18:46:54.735Z,18.75
2023-08-15T18:49:21.433Z,18.69
2023-08-15T18:51:48.127Z,18.50
2023-08-15T18:54:14.745Z,18.38
2023-08-15T18:56:41.420Z,18.31
2023-08-15T18:59:08.084Z,18.38
2023-08-15T19:01:34.745Z,18.19
2023-08-15T19:04:01.630Z,17.88
2023-08-15T19:06:28.277Z,17.88
2023-08-15T19:08:54.927Z,17.88
2023-08-15T19:11:21.519Z,17.75
2023-08-15T19:13:48.203Z,17.69
2023-08-15T19:16:14.834Z,17.44
2023-08-15T19:18:41.465Z,17.44
2023-08-15T19:21:08.501Z,17.31
2023-08-15T19:23:35.186Z,17.19
2023-08-15T19:26:01.846Z,17.19
2023-08-15T19:28:28.584Z,17.00
2023-08-15T19:30:55.265Z,16.81
2023-08-15T19:33:21.976Z,16.94
2023-08-15T19:35:48.658Z,16.88
2023-08-15T19:38:15.946Z,16.63
2023-08-15T19:40:42.725Z,16.63
2023-08-15T19:43:09.399Z,16.69
2023-08-15T19:45:36.056Z,16.69
2023-08-15T19:48:02.841Z,16.69
2023-08-15T19:50:30.454Z,16.56
2023-08-15T19:52:57.283Z,16.44
2023-08-15T19:55:24.024Z,16.38
2023-08-15T19:57:50.664Z,16.25
2023-08-15T20:00:18.205Z,16.25
2023-08-15T20:02:45.315Z,16.19
2023-08-15T20:05:12.489Z,16.00
2023-08-15T20:07:39.806Z,15.94
2023-08-15T20:10:11.641Z,15.81
2023-08-15T20:12:39.175Z,15.63
2023-08-15T20:15:06.438Z,15.63
2023-08-15T20:17:33.113Z,15.69
2023-08-15T20:20:00.273Z,15.69
2023-08-15T20:22:27.375Z,15.81
2023-08-15T20:24:54.713Z,15.63
2023-08-15T20:27:22.043Z,15.75
2023-08-15T20:29:51.565Z,15.56
2023-08-15T20:32:18.402Z,15.63
2023-08-15T20:34:45.118Z,15.63
2023-08-15T20:37:11.740Z,15.69
2023-08-15T20:39:38.349Z,15.56
2023-08-15T20:42:05.239Z,15.50
2023-08-15T20:44:32.789Z,15.50
2023-08-15T20:47:00.346Z,15.38
2023-08-15T20:49:27.440Z,15.31
2023-08-15T20:51:54.548Z,15.25
2023-08-15T20:54:21.651Z,15.13
2023-08-15T20:56:48.561Z,15.00
2023-08-15T20:59:15.143Z,15.13
2023-08-15T21:01:42.516Z,15.13
2023-08-15T21:04:09.255Z,14.88
2023-08-15T21:06:36.023Z,14.69
2023-08-15T21:09:02.690Z,14.56
2023-08-15T21:11:29.363Z,14.69
2023-08-15T21:13:56.379Z,14.94
2023-08-15T21:16:23.074Z,14.94
2023-08-15T21:18:49.776Z,15.06
2023-08-15T21:21:16.438Z,15.06
2023-08-15T21:23:43.057Z,15.06
2023-08-15T21:26:09.680Z,15.13
2023-08-15T21:28:36.730Z,15.06
2023-08-15T21:31:03.607Z,15.00
2023-08-15T21:33:30.184Z,14.94
2023-08-15T21:35:56.952Z,14.88
2023-08-15T21:38:23.648Z,14.88
2023-08-15T21:40:51.039Z,14.94
2023-08-15T21:43:18.026Z,14.94
2023-08-15T21:45:45.809Z,14.88
2023-08-15T21:48:12.692Z,14.81
2023-08-15T21:50:39.401Z,14.69
2023-08-15T21:53:06.603Z,14.56
2023-08-15T21:55:34.087Z,14.44
2023-08-15T21:58:00.820Z,14.31
2023-08-15T22:00:28.248Z,14.38
2023-08-15T22:02:57.984Z,14.44
2023-08-15T22:05:26.449Z,14.56
2023-08-15T22:07:53.873Z,14.44
2023-08-15T22:10:22.019Z,14.50
2023-08-15T22:12:50.051Z,14.56
2023-08-15T22:15:18.993Z,14.50
2023-08-15T22:17:57.419Z,14.25
2023-08-15T22:20:31.429Z,14.19
2023-08-15T22:22:58.051Z,14.19
2023-08-15T22:25:24.722Z,14.25
2023-08-15T22:27:51.352Z,14.25
2023-08-15T22:30:18.501Z,14.25
2023-08-15T22:32:45.169Z,14.25
2023-08-15T22:35:12.457Z,14.00
2023-08-15T22:37:39.194Z,14.00
2023-08-15T22:40:06.535Z,14.00
2023-08-15T22:42:33.200Z,14.00
2023-08-15T22:44:59.868Z,14.00
2023-08-15T22:47:26.534Z,14.06
2023-08-15T22:49:53.135Z,14.13
2023-08-15T22:52:19.811Z,14.13
2023-08-15T22:54:46.486Z,14.00
2023-08-15T22:57:13.147Z,14.13
2023-08-15T22:59:39.785Z,13.94
2023-08-15T23:02:06.523Z,13.88
2023-08-15T23:04:33.209Z,13.81
2023-08-15T23:06:59.875Z,13.88
2023-08-15T23:09:26.457Z,13.88
2023-08-15T23:11:53.090Z,13.94
2023-08-15T23:14:19.701Z,13.81
2023-08-15T23:16:46.385Z,13.75
2023-08-15T23:19:13.229Z,13.69
2023-08-15T23:21:42.290Z,13.69
2023-08-15T23:24:09.021Z,13.63
2023-08-15T23:26:36.965Z,13.56
2023-08-15T23:29:04.562Z,13.44
2023-08-15T23:31:32.907Z,13.56
2023-08-15T23:34:00.174Z,13.69
2023-08-15T23:36:26.801Z,13.69
2023-08-15T23:38:53.764Z,13.69
2023-08-15T23:41:20.387Z,13.56
2023-08-15T23:43:47.122Z,13.56
2023-08-15T23:46:13.759Z,13.63
2023-08-15T23:48:40.394Z,13.50
2023-08-15T23:51:07.067Z,13.56
2023-08-15T23:53:34.043Z,13.38
2023-08-15T23:56:00.714Z,13.44
2023-08-15T23:58:27.558Z,13.44
